Sweeney Granite Mountains, California Weather observations

Data are for 10 minute period ending at time listed.
 Day   Time   Solar   Ave.   Ave.  Ave.  Vector  Max.   Baro.   Total    
  of    of     Rad.   Air    Rel.  Wind   Wind   Wind  Press.  Precip.   
Year   Day            Temp.  Hum.  Speed  Dir.   Gust                    
2017   (PST)  Kw/m2    F      %     mph   deg.    mph    mb.     in.     
-------------------------------------------------------------------------
 203   17:10   0.30   94.0    18    3.8   228    10.6   868.9    0.00 
 203   17:20   0.27   93.7    18    2.6   184     7.2   869.0    0.00 
 203   17:30   0.23   94.4    18    3.4   242     7.0   868.9    0.00 
 203   17:40   0.20   94.2    18    2.9   230     9.1   868.9    0.00 
 203   17:50   0.17   93.4    19    4.0   235    11.5   869.0    0.00 
 203   18:00   0.04   91.2    20    4.8   226     9.3   869.0    0.00 
 203   18:10   0.02   89.9    21    4.6   239     9.1   869.0    0.00 
 203   18:20   0.01   89.7    21    4.3   229     9.8   869.2    0.00 
 203   18:30   0.01   89.5    22    4.0   231     8.4   869.2    0.00 
 203   18:40   0.01   89.2    22    3.1   225     7.5   869.2    0.00 
 203   18:50   0.00   88.9    22    4.7   232     7.5   869.2    0.00 
 203   19:00   0.00   88.6    22    4.2   251     9.0   869.2    0.00 
 203   19:10   0.00   88.4    23    3.1   236     7.8   869.3    0.00 
 203   19:20   0.00   88.2    23    3.4   229     6.6   869.4    0.00 
 203   19:30   0.00   88.1    23    3.6   240     6.7   869.4    0.00 
 203   19:40   0.00   86.8    24    2.3   283     3.4   869.5    0.00 
 203   19:50   0.00   86.4    24    1.9   277     3.1   869.6    0.00 
 203   20:00   0.00   86.3    25    1.9   262     3.2   869.6    0.00 
 203   20:10   0.00   86.5    24    1.3   260     3.4   869.7    0.00 
 203   20:20   0.00   85.4    26    1.9   286     3.1   869.8    0.00 
 203   20:30   0.00   85.2    26    1.5   273     2.6   869.8    0.00 
 203   20:40   0.00   85.1    26    2.7   277     4.1   869.9    0.00 
 203   20:50   0.00   85.4    26    2.0   272     3.4   870.0    0.00 
 203   21:00   0.00   85.7    26    2.0   282     3.6   870.0    0.00 
 203   21:10   0.00   83.1    28    4.2   298     5.3   870.0    0.00 
 203   21:20   0.00   83.2    28    3.5   280     5.0   870.1    0.00 
 203   21:30   0.00   83.4    29    3.8   286     5.5   870.2    0.00 
 203   21:40   0.00   84.5    28    1.9   269     3.7   870.2    0.00 
 203   21:50   0.00   84.4    28    2.8   278     4.1   870.2    0.00 
 203   22:00   0.00   83.2    30    2.8   287     4.0   870.1    0.00 
 203   22:10   0.00   83.4    30    1.1   292     3.2   870.2    0.00 
 203   22:20   0.00   82.3    31    2.1   286     3.9   870.2    0.00 
 203   22:30   0.00   80.0    33    3.5   303     4.3   870.2    0.00 
 203   22:40   0.00   81.7    31    2.9   273     5.0   870.2    0.00 
 203   22:50   0.00   83.1    30    3.6   238     7.5   870.1    0.00 
 203   23:00   0.00   84.5    28    1.6   284     5.4   870.2    0.00 
 203   23:10   0.00   84.2    28    0.2   356     1.5   870.2    0.00 
 203   23:20   0.00   83.3    29    1.3    82     2.2   870.2    0.00 
 203   23:30   0.00   82.8    30    1.3    46     2.0   870.3    0.00 
 203   23:40   0.00   82.6    30    3.9   100     7.2   870.4    0.00 
 203   23:50   0.00   82.2    30    7.1    81    14.8   870.4    0.00 
 204    0:00   0.00   82.3    30    7.6    97    12.6   870.5    0.00 
 204    0:10   0.00   81.8    31    5.2    57    10.7   870.5    0.00 
 204    0:20   0.00   82.3    32    3.9    40     9.4   870.3    0.00 
 204    0:30   0.00   81.6    32    1.3   261     3.0   870.1    0.00 
 204    0:40   0.00   80.6    33    1.8   140     4.2   870.0    0.00 
 204    0:50   0.00   80.0    34    3.9    97     7.9   870.0    0.00 
 204    1:00   0.00   80.2    35    3.3    88     6.6   869.8    0.00 
 204    1:10   0.00   80.0    36    3.3   110     5.0   869.7    0.00 
 204    1:20   0.00   79.6    38    1.0    88     3.0   869.7    0.00 
 204    1:30   0.00   79.5    38    1.2    86     3.4   869.6    0.00 
 204    1:40   0.00   76.4    41    2.5   296     4.1   869.3    0.00 
 204    1:50   0.00   75.4    42    4.5   301     5.3   869.1    0.00 
 204    2:00   0.00   78.8    37    1.6   218     4.2   869.0    0.00 
 204    2:10   0.00   80.4    34    2.0    10     3.9   869.1    0.00 
 204    2:20   0.00   78.9    36    2.0   281     3.9   869.0    0.00 
 204    2:30   0.00   79.1    35    2.5   145     5.9   869.0    0.00 
 204    2:40   0.00   80.0    34    2.4    65     4.8   869.1    0.00 
 204    2:50   0.00   79.0    36    0.4   329     1.8   869.0    0.00 
 204    3:00   0.00   76.5    39    1.3   266     2.1   868.9    0.00 
 204    3:10   0.00   75.0    41    0.9   105     1.8   869.0    0.00 
 204    3:20   0.00   75.8    39    1.0    94     1.5   869.0    0.00 
 204    3:30   0.00   76.4    38    0.3   289     1.0   868.8    0.00 
 204    3:40   0.00   76.4    38    2.3   292     4.2   868.8    0.00 
 204    3:50   0.00   77.1    35    4.1   268     5.8   868.9    0.00 
 204    4:00   0.00   77.4    34    5.8   270    10.4   869.0    0.00 
 204    4:10   0.00   79.4    32    5.0   274     9.3   869.0    0.00 
 204    4:20   0.00   79.1    33    1.1   326     4.8   869.2    0.00 
 204    4:30   0.00   78.0    34    2.1   271     4.7   869.2    0.00 
 204    4:40   0.00   78.2    33    1.6   276     3.4   869.3    0.00 
 204    4:50   0.00   79.5    30    6.9   308    10.7   869.3    0.00 
 204    5:00   0.00   80.9    29    7.5   305    11.8   869.3    0.00 
 204    5:10   0.01   80.3    31    2.6   360     6.8   869.4    0.00 
 204    5:20   0.01   79.3    32    0.7    78     2.3   869.5    0.00 
 204    5:30   0.01   79.6    32    0.6   316     2.9   869.5    0.00 
 204    5:40   0.02   80.6    29    5.1   322     8.8   869.5    0.00 
 204    5:50   0.07   82.0    26    7.1   305    11.6   869.5    0.00 
 204    6:00   0.13   83.4    25    7.5   290    11.2   869.7    0.00 
 204    6:10   0.16   84.1    26    3.8   354     9.0   869.8    0.00 
 204    6:20   0.19   84.9    29    3.1    74     5.0   869.9    0.00 
 204    6:30   0.23   85.3    29    2.4    59     4.2   870.0    0.00 
 204    6:40   0.26   86.6    28    2.3   198     5.2   870.0    0.00 
 204    6:50   0.29   85.8    28    2.9   206     5.3   870.1    0.00 
 204    7:00   0.33   86.3    28    2.7   188     5.4   870.2    0.00 
 204    7:10   0.36   87.0    27    1.3   191     3.8   870.3    0.00 
 204    7:20   0.40   87.4    27    3.1   186     5.3   870.4    0.00 
 204    7:30   0.43   87.8    26    1.7   197     3.5   870.4    0.00 
 204    7:40   0.47   89.0    25    2.8   203     6.6   870.4    0.00 
 204    7:50   0.50   87.2    26    3.1   195     7.4   870.4    0.00 
 204    8:00   0.53   88.3    26    3.2   159     9.1   870.4    0.00 
 204    8:10   0.56   88.2    26    1.7   110     6.8   870.4    0.00 
 204    8:20   0.59   88.0    28    2.8   145     7.2   870.5    0.00 
 204    8:30   0.63   88.2    27    3.6    89     6.1   870.5    0.00 
 204    8:40   0.66   88.8    28    3.4   138     7.5   870.5    0.00 
 204    8:50   0.70   88.8    27    4.4   131     8.8   870.5    0.00 
 204    9:00   0.72   88.7    27    3.7   144     8.4   870.5    0.00 
 204    9:10   0.67   89.4    26    3.2   144     9.7   870.5    0.00 
 204    9:20   0.52   89.6    26    4.4   144    10.7   870.6    0.00 
 204    9:30   0.66   89.2    26    5.9   124    11.0   870.6    0.00 
 204    9:40   0.84   91.0    25    2.9   115     9.3   870.5    0.00 
 204    9:50   0.80   90.5    25    4.3   136    10.4   870.5    0.00 
 204   10:00   1.01   91.6    24    3.9   231    10.7   870.5    0.00 
 204   10:10   1.14   91.7    23    4.9   234    10.1   870.5    0.00 
 204   10:20   0.60   92.1    22    4.0   204    10.7   870.5    0.00 
 204   10:30   0.60   90.0    24    3.8   186     8.8   870.5    0.00 
 204   10:40   0.52   90.0    24    4.4   236     8.1   870.4    0.00 
 204   10:50   0.44   89.1    24    4.1   212     8.1   870.4    0.00 
 204   11:00   0.66   90.3    23    3.4   215     6.6   870.4    0.00 
 204   11:10   0.95   91.9    22    4.0   219     8.6   870.3    0.00 
 204   11:20   0.98   92.3    22    4.9   219     9.3   870.2    0.00 
 204   11:30   0.98   92.7    21    5.4   192    11.5   870.1    0.00 
 204   11:40   0.99   92.5    21    4.4   110    10.9   870.0    0.00 
 204   11:50   1.01   94.4    20    3.5   146    12.4   870.0    0.00 
 204   12:00   1.01   93.6    21    4.4   136    11.8   869.9    0.00 
 204   12:10   1.01   93.0    21    4.6   248    12.9   869.8    0.00 
 204   12:20   0.98   92.5    21    5.5   210    13.5   869.7    0.00 
 204   12:30   0.95   94.7    20    4.1   190    11.2   869.6    0.00 
 204   12:40   0.98   93.3    21    4.3   153    12.4   869.5    0.00 
 204   12:50   0.97   92.3    21    5.2   199    13.4   869.4    0.00 
 204   13:00   0.94   93.1    21    5.7   166    14.7   869.3    0.00 
 204   13:10   0.92   93.7    20    4.4   233    12.4   869.2    0.00 
 204   13:20   0.91   94.6    20    6.7   239    16.5   869.1    0.00 
 204   13:30   0.90   93.7    20    5.1   221    15.2   868.9    0.00 
 204   13:40   0.89   94.0    20    6.0   213    13.6   868.7    0.00 
 204   13:50   0.85   93.5    20    6.2   230    16.7   868.6    0.00 
 204   14:00   0.84   94.6    20    3.5   162    10.4   868.4    0.00 
 204   14:10   0.81   94.9    19    5.2   186    11.4   868.3    0.00 
 204   14:20   0.80   94.5    20    7.2    95    16.4   868.1    0.00 
 204   14:30   0.77   93.4    20    6.9   123    17.4   868.1    0.00 
 204   14:40   0.74   93.9    20    4.2   185    12.9   868.0    0.00 
 204   14:50   0.72   94.0    20    4.2   232    11.4   867.9    0.00 
 204   15:00   0.70   94.7    19    4.9   221    13.0   867.8    0.00 
 204   15:10   0.67   93.9    20    5.8   104    13.3   867.6    0.00 
 204   15:20   0.64   94.8    19    3.5   241    12.7   867.5    0.00 
 204   15:30   0.61   94.3    19    6.6   219    14.0   867.5    0.00 
 204   15:40   0.58   94.1    20    4.4   233    10.7   867.4    0.00 
 204   15:50   0.55   94.2    20    4.2   192     9.7   867.4    0.00 
 204   16:00   0.51   94.0    20    5.4   219    12.3   867.2    0.00 
 204   16:10   0.49   94.0    20    2.8   198    12.4   867.2    0.00 
 204   16:20   0.46   93.5    21    6.6   212    13.6   867.1    0.00 
 204   16:30   0.42   95.0    20    3.1   198     7.5   867.1    0.00 
 204   16:40   0.38   94.2    20    5.2   216    14.1   867.1    0.00 
 204   16:50   0.35   93.3    21    5.2   231    11.4   867.1    0.00 
 204   17:00   0.31   93.6    21    4.4   194    13.3   867.1    0.00 

Return to Sweeney Granite Mountains graphs page.


Western Regional Climate Center,wrcc@dri.edu